sensor_id;sensor_type;location;lat;lon;timestamp;pressure;altitude;pressure_sealevel;temperature;humidity
78121;BME280;67585;44.802;10.332;2023-04-01T00:01:05;99861.28;;;13.40;62.99
78121;BME280;67585;44.802;10.332;2023-04-01T00:03:31;99857.47;;;13.41;63.52
78121;BME280;67585;44.802;10.332;2023-04-01T00:05:59;99893.84;;;13.82;62.90
78121;BME280;67585;44.802;10.332;2023-04-01T00:08:25;99894.25;;;14.03;61.45
78121;BME280;67585;44.802;10.332;2023-04-01T00:10:51;99837.28;;;13.80;61.22
78121;BME280;67585;44.802;10.332;2023-04-01T00:13:17;99895.19;;;14.12;61.07
78121;BME280;67585;44.802;10.332;2023-04-01T00:15:43;99865.38;;;13.84;61.25
78121;BME280;67585;44.802;10.332;2023-04-01T00:18:09;99898.31;;;14.05;61.99
78121;BME280;67585;44.802;10.332;2023-04-01T00:20:35;99896.38;;;14.06;61.24
78121;BME280;67585;44.802;10.332;2023-04-01T00:23:01;99897.38;;;13.96;61.67
78121;BME280;67585;44.802;10.332;2023-04-01T00:25:27;99877.72;;;13.77;61.67
78121;BME280;67585;44.802;10.332;2023-04-01T00:27:52;99885.41;;;13.70;61.93
78121;BME280;67585;44.802;10.332;2023-04-01T00:30:18;99890.03;;;13.69;62.93
78121;BME280;67585;44.802;10.332;2023-04-01T00:32:43;99889.63;;;13.76;63.04
78121;BME280;67585;44.802;10.332;2023-04-01T00:35:09;99859.72;;;13.53;62.47
78121;BME280;67585;44.802;10.332;2023-04-01T00:37:36;99889.09;;;13.74;61.82
78121;BME280;67585;44.802;10.332;2023-04-01T00:40:06;99835.22;;;13.44;61.66
78121;BME280;67585;44.802;10.332;2023-04-01T00:42:32;99859.75;;;13.67;62.27
78121;BME280;67585;44.802;10.332;2023-04-01T00:44:58;99874.69;;;13.64;62.21
78121;BME280;67585;44.802;10.332;2023-04-01T00:47:25;99884.63;;;13.83;61.37
78121;BME280;67585;44.802;10.332;2023-04-01T00:49:53;99816.09;;;13.41;61.19
78121;BME280;67585;44.802;10.332;2023-04-01T00:52:25;99882.19;;;13.67;61.55
78121;BME280;67585;44.802;10.332;2023-04-01T00:55:11;99756.75;;;12.98;61.69
78121;BME280;67585;44.802;10.332;2023-04-01T00:57:42;99810.50;;;13.51;60.70
78121;BME280;67585;44.802;10.332;2023-04-01T01:00:11;99795.50;;;13.26;61.54
78121;BME280;67585;44.802;10.332;2023-04-01T01:02:41;99818.66;;;13.32;61.60
78121;BME280;67585;44.802;10.332;2023-04-01T01:05:11;99789.69;;;13.00;61.49
78121;BME280;67585;44.802;10.332;2023-04-01T01:10:30;99847.44;;;13.42;62.47
78121;BME280;67585;44.802;10.332;2023-04-01T01:15:58;99853.38;;;13.44;62.71
78121;BME280;67585;44.802;10.332;2023-04-01T01:18:42;99838.34;;;13.19;62.97
78121;BME280;67585;44.802;10.332;2023-04-01T01:24:17;99840.63;;;13.44;62.55
78121;BME280;67585;44.802;10.332;2023-04-01T01:29:42;99833.91;;;13.42;60.96
78121;BME280;67585;44.802;10.332;2023-04-01T01:37:42;99827.53;;;13.52;61.00
78121;BME280;67585;44.802;10.332;2023-04-01T01:40:10;99817.22;;;13.54;60.71
78121;BME280;67585;44.802;10.332;2023-04-01T01:42:39;99842.69;;;13.66;60.04
78121;BME280;67585;44.802;10.332;2023-04-01T01:45:06;99841.91;;;13.80;60.31
78121;BME280;67585;44.802;10.332;2023-04-01T01:47:34;99838.09;;;13.81;59.75
78121;BME280;67585;44.802;10.332;2023-04-01T01:50:01;99831.47;;;13.73;59.01
78121;BME280;67585;44.802;10.332;2023-04-01T01:52:28;99816.22;;;13.63;59.07
78121;BME280;67585;44.802;10.332;2023-04-01T01:54:56;99837.28;;;13.80;59.13
78121;BME280;67585;44.802;10.332;2023-04-01T01:57:30;99837.97;;;13.58;59.39
78121;BME280;67585;44.802;10.332;2023-04-01T02:00:03;99837.78;;;13.55;58.50
78121;BME280;67585;44.802;10.332;2023-04-01T02:02:30;99840.03;;;13.34;59.05
78121;BME280;67585;44.802;10.332;2023-04-01T02:04:57;99817.88;;;13.32;58.62
78121;BME280;67585;44.802;10.332;2023-04-01T02:07:33;99837.38;;;13.61;57.69
78121;BME280;67585;44.802;10.332;2023-04-01T02:10:01;99822.31;;;13.41;57.98
78121;BME280;67585;44.802;10.332;2023-04-01T02:12:28;99817.31;;;13.49;57.28
78121;BME280;67585;44.802;10.332;2023-04-01T02:15:03;99848.19;;;13.48;57.76
78121;BME280;67585;44.802;10.332;2023-04-01T02:17:31;99845.16;;;13.49;57.09
78121;BME280;67585;44.802;10.332;2023-04-01T02:20:01;99842.19;;;13.78;55.86
78121;BME280;67585;44.802;10.332;2023-04-01T02:22:32;99861.03;;;13.04;61.06
78121;BME280;67585;44.802;10.332;2023-04-01T02:25:04;99876.13;;;13.24;60.67
78121;BME280;67585;44.802;10.332;2023-04-01T02:27:31;99872.75;;;13.32;60.27
78121;BME280;67585;44.802;10.332;2023-04-01T02:29:57;99873.66;;;12.90;62.38
78121;BME280;67585;44.802;10.332;2023-04-01T02:32:24;99845.31;;;12.68;62.31
78121;BME280;67585;44.802;10.332;2023-04-01T02:34:50;99876.28;;;12.76;62.39
78121;BME280;67585;44.802;10.332;2023-04-01T02:37:16;99877.41;;;12.94;61.46
78121;BME280;67585;44.802;10.332;2023-04-01T02:39:42;99873.59;;;12.76;62.38
78121;BME280;67585;44.802;10.332;2023-04-01T02:42:08;99882.28;;;12.73;62.97
78121;BME280;67585;44.802;10.332;2023-04-01T02:44:34;99870.31;;;12.60;62.89
78121;BME280;67585;44.802;10.332;2023-04-01T02:47:00;99890.44;;;12.49;63.30
78121;BME280;67585;44.802;10.332;2023-04-01T02:49:25;99897.22;;;12.22;65.45
78121;BME280;67585;44.802;10.332;2023-04-01T02:51:50;99871.22;;;12.07;64.97
78121;BME280;67585;44.802;10.332;2023-04-01T02:54:17;99866.72;;;11.97;65.23
78121;BME280;67585;44.802;10.332;2023-04-01T02:56:42;99890.38;;;12.06;66.15
78121;BME280;67585;44.802;10.332;2023-04-01T02:59:08;99858.78;;;11.82;65.62
78121;BME280;67585;44.802;10.332;2023-04-01T03:01:33;99873.84;;;11.88;65.71
78121;BME280;67585;44.802;10.332;2023-04-01T03:03:59;99905.22;;;12.32;64.54
78121;BME280;67585;44.802;10.332;2023-04-01T03:06:24;99910.00;;;12.16;65.64
78121;BME280;67585;44.802;10.332;2023-04-01T03:08:50;99871.31;;;11.97;65.48
78121;BME280;67585;44.802;10.332;2023-04-01T03:11:15;99842.66;;;12.01;64.54
78121;BME280;67585;44.802;10.332;2023-04-01T03:13:40;99865.41;;;12.19;64.39
78121;BME280;67585;44.802;10.332;2023-04-01T03:16:06;99895.84;;;12.49;64.07
78121;BME280;67585;44.802;10.332;2023-04-01T03:18:32;99914.75;;;12.49;63.71
78121;BME280;67585;44.802;10.332;2023-04-01T03:20:57;99893.50;;;12.61;62.72
78121;BME280;67585;44.802;10.332;2023-04-01T03:23:23;99916.66;;;12.48;64.40
78121;BME280;67585;44.802;10.332;2023-04-01T03:25:49;99906.81;;;12.09;65.08
78121;BME280;67585;44.802;10.332;2023-04-01T03:28:15;99903.81;;;11.82;65.70
78121;BME280;67585;44.802;10.332;2023-04-01T03:30:40;99889.09;;;11.69;66.19
78121;BME280;67585;44.802;10.332;2023-04-01T03:33:06;99912.72;;;11.87;65.92
78121;BME280;67585;44.802;10.332;2023-04-01T03:35:31;99911.63;;;11.88;65.53
78121;BME280;67585;44.802;10.332;2023-04-01T03:37:57;99873.63;;;11.80;65.22
78121;BME280;67585;44.802;10.332;2023-04-01T03:40:23;99913.53;;;12.12;65.80
78121;BME280;67585;44.802;10.332;2023-04-01T03:42:49;99933.97;;;12.18;65.00
78121;BME280;67585;44.802;10.332;2023-04-01T03:45:15;99900.09;;;12.07;65.52
78121;BME280;67585;44.802;10.332;2023-04-01T03:47:40;99904.34;;;12.37;64.08
78121;BME280;67585;44.802;10.332;2023-04-01T03:50:07;99918.25;;;12.25;64.92
78121;BME280;67585;44.802;10.332;2023-04-01T03:52:33;99925.72;;;12.09;65.04
78121;BME280;67585;44.802;10.332;2023-04-01T03:55:00;99900.78;;;12.17;64.58
78121;BME280;67585;44.802;10.332;2023-04-01T03:57:26;99924.22;;;12.22;64.86
78121;BME280;67585;44.802;10.332;2023-04-01T03:59:51;99899.38;;;11.96;64.58
78121;BME280;67585;44.802;10.332;2023-04-01T04:02:17;99911.91;;;11.82;65.35
78121;BME280;67585;44.802;10.332;2023-04-01T04:04:42;99898.78;;;11.75;65.69
78121;BME280;67585;44.802;10.332;2023-04-01T04:07:08;99925.97;;;11.79;66.08
78121;BME280;67585;44.802;10.332;2023-04-01T04:09:33;99896.66;;;11.38;66.69
78121;BME280;67585;44.802;10.332;2023-04-01T04:11:59;99912.38;;;11.60;65.99
78121;BME280;67585;44.802;10.332;2023-04-01T04:14:25;99931.03;;;11.56;67.36
78121;BME280;67585;44.802;10.332;2023-04-01T04:16:50;99932.28;;;11.69;66.65
78121;BME280;67585;44.802;10.332;2023-04-01T04:19:15;99924.03;;;11.89;65.25
78121;BME280;67585;44.802;10.332;2023-04-01T04:21:41;99908.06;;;11.93;65.26
78121;BME280;67585;44.802;10.332;2023-04-01T04:24:07;99933.28;;;12.07;65.55
78121;BME280;67585;44.802;10.332;2023-04-01T04:26:33;99938.91;;;12.11;65.26
78121;BME280;67585;44.802;10.332;2023-04-01T04:28:58;99917.00;;;11.88;64.79
78121;BME280;67585;44.802;10.332;2023-04-01T04:31:24;99934.78;;;11.94;64.91
78121;BME280;67585;44.802;10.332;2023-04-01T04:33:51;99935.56;;;11.95;65.75
78121;BME280;67585;44.802;10.332;2023-04-01T04:36:17;99954.53;;;11.90;65.81
78121;BME280;67585;44.802;10.332;2023-04-01T04:38:42;99953.00;;;12.08;65.21
78121;BME280;67585;44.802;10.332;2023-04-01T04:41:09;99960.91;;;12.28;64.42
78121;BME280;67585;44.802;10.332;2023-04-01T04:43:37;99948.69;;;12.07;65.13
78121;BME280;67585;44.802;10.332;2023-04-01T04:46:07;99957.00;;;12.10;65.58
78121;BME280;67585;44.802;10.332;2023-04-01T04:48:32;99959.47;;;11.38;67.29
78121;BME280;67585;44.802;10.332;2023-04-01T04:50:58;99942.19;;;11.05;68.00
78121;BME280;67585;44.802;10.332;2023-04-01T04:53:23;99971.50;;;11.17;68.16
78121;BME280;67585;44.802;10.332;2023-04-01T04:55:50;99956.44;;;11.05;68.20
78121;BME280;67585;44.802;10.332;2023-04-01T04:58:16;99965.78;;;11.23;67.91
78121;BME280;67585;44.802;10.332;2023-04-01T05:00:42;99961.78;;;11.55;67.22
78121;BME280;67585;44.802;10.332;2023-04-01T05:03:07;99958.31;;;11.49;66.93
78121;BME280;67585;44.802;10.332;2023-04-01T05:05:33;99949.66;;;11.52;66.49
78121;BME280;67585;44.802;10.332;2023-04-01T05:07:58;99962.69;;;11.74;66.39
78121;BME280;67585;44.802;10.332;2023-04-01T05:10:24;99963.09;;;11.63;65.97
78121;BME280;67585;44.802;10.332;2023-04-01T05:12:49;99956.50;;;11.40;65.85
78121;BME280;67585;44.802;10.332;2023-04-01T05:15:15;99957.84;;;11.42;66.52
78121;BME280;67585;44.802;10.332;2023-04-01T05:17:40;99986.72;;;12.10;64.15
78121;BME280;67585;44.802;10.332;2023-04-01T05:20:06;99953.44;;;11.86;64.17
78121;BME280;67585;44.802;10.332;2023-04-01T05:22:32;99978.56;;;11.81;64.87
78121;BME280;67585;44.802;10.332;2023-04-01T05:24:57;99993.34;;;11.94;65.24
78121;BME280;67585;44.802;10.332;2023-04-01T05:27:23;99968.13;;;11.69;65.20
78121;BME280;67585;44.802;10.332;2023-04-01T05:29:48;99966.13;;;11.51;66.01
78121;BME280;67585;44.802;10.332;2023-04-01T05:32:14;99992.84;;;11.87;65.67
78121;BME280;67585;44.802;10.332;2023-04-01T05:34:40;99976.13;;;11.90;64.87
78121;BME280;67585;44.802;10.332;2023-04-01T05:37:05;99968.56;;;11.87;65.59
78121;BME280;67585;44.802;10.332;2023-04-01T05:39:36;99990.63;;;11.94;64.85
78121;BME280;67585;44.802;10.332;2023-04-01T05:42:01;99986.19;;;11.74;65.57
78121;BME280;67585;44.802;10.332;2023-04-01T05:44:27;99986.97;;;11.74;66.96
78121;BME280;67585;44.802;10.332;2023-04-01T05:46:52;99995.81;;;12.19;65.47
78121;BME280;67585;44.802;10.332;2023-04-01T05:49:17;99970.28;;;12.07;64.69
78121;BME280;67585;44.802;10.332;2023-04-01T05:51:43;99990.72;;;12.42;64.48
78121;BME280;67585;44.802;10.332;2023-04-01T05:54:08;99992.41;;;12.38;63.67
78121;BME280;67585;44.802;10.332;2023-04-01T05:56:33;99971.50;;;12.19;64.63
78121;BME280;67585;44.802;10.332;2023-04-01T05:58:59;99988.78;;;12.48;63.20
78121;BME280;67585;44.802;10.332;2023-04-01T06:01:24;99975.75;;;12.26;64.01
78121;BME280;67585;44.802;10.332;2023-04-01T06:03:50;99968.69;;;12.30;62.92
78121;BME280;67585;44.802;10.332;2023-04-01T06:06:28;99974.91;;;12.30;62.14
78121;BME280;67585;44.802;10.332;2023-04-01T06:08:56;100001.97;;;12.25;61.93
78121;BME280;67585;44.802;10.332;2023-04-01T06:11:24;100002.69;;;12.60;58.12
78121;BME280;67585;44.802;10.332;2023-04-01T06:19:45;100006.66;;;12.68;59.20
78121;BME280;67585;44.802;10.332;2023-04-01T06:36:05;100012.84;;;13.54;49.50
78121;BME280;67585;44.802;10.332;2023-04-01T06:55:21;100014.53;;;15.17;44.84
78121;BME280;67585;44.802;10.332;2023-04-01T06:57:44;100009.69;;;15.51;43.70
78121;BME280;67585;44.802;10.332;2023-04-01T07:00:34;100012.50;;;15.23;44.42
78121;BME280;67585;44.802;10.332;2023-04-01T07:03:23;100012.28;;;15.92;42.00
78121;BME280;67585;44.802;10.332;2023-04-01T07:05:52;99977.19;;;15.73;42.48
78121;BME280;67585;44.802;10.332;2023-04-01T07:08:24;100006.91;;;16.01;42.18
78121;BME280;67585;44.802;10.332;2023-04-01T07:10:56;99997.56;;;16.16;41.42
78121;BME280;67585;44.802;10.332;2023-04-01T07:13:47;99998.25;;;16.21;40.69
78121;BME280;67585;44.802;10.332;2023-04-01T07:16:26;99986.69;;;16.96;39.60
78121;BME280;67585;44.802;10.332;2023-04-01T07:21:48;99989.25;;;17.01;39.56
78121;BME280;67585;44.802;10.332;2023-04-01T07:24:26;99987.56;;;16.74;39.73
78121;BME280;67585;44.802;10.332;2023-04-01T07:26:54;99986.59;;;17.36;38.34
78121;BME280;67585;44.802;10.332;2023-04-01T07:29:20;99971.50;;;17.12;38.56
78121;BME280;67585;44.802;10.332;2023-04-01T07:34:24;99976.16;;;17.46;38.86
78121;BME280;67585;44.802;10.332;2023-04-01T07:39:55;99989.94;;;17.06;39.38
78121;BME280;67585;44.802;10.332;2023-04-01T07:45:23;99991.06;;;17.58;39.20
78121;BME280;67585;44.802;10.332;2023-04-01T07:48:20;99996.00;;;17.99;37.83
78121;BME280;67585;44.802;10.332;2023-04-01T07:51:02;99986.72;;;17.74;38.28
78121;BME280;67585;44.802;10.332;2023-04-01T07:53:57;99995.50;;;18.06;38.47
78121;BME280;67585;44.802;10.332;2023-04-01T07:56:33;99986.94;;;18.25;37.93
78121;BME280;67585;44.802;10.332;2023-04-01T08:04:55;99993.97;;;18.73;36.08
78121;BME280;67585;44.802;10.332;2023-04-01T08:07:40;99996.72;;;19.03;36.82
78121;BME280;67585;44.802;10.332;2023-04-01T08:10:26;99996.53;;;18.78;37.67
78121;BME280;67585;44.802;10.332;2023-04-01T08:13:34;99995.47;;;19.21;36.48
78121;BME280;67585;44.802;10.332;2023-04-01T08:21:47;99957.63;;;19.53;37.14
78121;BME280;67585;44.802;10.332;2023-04-01T08:26:53;99981.53;;;19.77;37.38
78121;BME280;67585;44.802;10.332;2023-04-01T08:29:23;99981.88;;;19.75;37.36
78121;BME280;67585;44.802;10.332;2023-04-01T08:32:23;99985.66;;;20.28;36.54
78121;BME280;67585;44.802;10.332;2023-04-01T08:35:04;99975.63;;;19.75;36.35
78121;BME280;67585;44.802;10.332;2023-04-01T08:37:32;99985.66;;;20.28;35.14
78121;BME280;67585;44.802;10.332;2023-04-01T08:45:47;99983.94;;;20.36;36.96
78121;BME280;67585;44.802;10.332;2023-04-01T08:48:40;99974.81;;;21.18;36.35
78121;BME280;67585;44.802;10.332;2023-04-01T08:56:50;99986.22;;;21.20;36.58
78121;BME280;67585;44.802;10.332;2023-04-01T08:59:54;99993.28;;;21.21;35.95
78121;BME280;67585;44.802;10.332;2023-04-01T09:08:42;99998.59;;;20.65;37.51
78121;BME280;67585;44.802;10.332;2023-04-01T09:11:27;99999.72;;;21.01;36.31
78121;BME280;67585;44.802;10.332;2023-04-01T09:23:09;99986.22;;;21.89;33.42
78121;BME280;67585;44.802;10.332;2023-04-01T09:41:43;99977.03;;;21.97;32.81
78121;BME280;67585;44.802;10.332;2023-04-01T10:08:41;99988.81;;;22.93;30.51
78121;BME280;67585;44.802;10.332;2023-04-01T10:14:56;99985.97;;;23.05;30.93
78121;BME280;67585;44.802;10.332;2023-04-01T10:28:07;99963.28;;;23.28;28.99
78121;BME280;67585;44.802;10.332;2023-04-01T10:34:02;99959.47;;;23.32;28.27
78121;BME280;67585;44.802;10.332;2023-04-01T10:50:45;99933.25;;;24.46;25.37
78121;BME280;67585;44.802;10.332;2023-04-01T10:53:40;99931.13;;;24.36;23.69
78121;BME280;67585;44.802;10.332;2023-04-01T10:56:39;99931.69;;;23.99;23.04
78121;BME280;67585;44.802;10.332;2023-04-01T11:16:34;99914.16;;;24.34;16.18
78121;BME280;67585;44.802;10.332;2023-04-01T11:40:28;99901.00;;;24.20;13.64
78121;BME280;67585;44.802;10.332;2023-04-01T11:48:43;99893.44;;;24.67;14.36
78121;BME280;67585;44.802;10.332;2023-04-01T12:10:16;99879.34;;;24.45;14.30
78121;BME280;67585;44.802;10.332;2023-04-01T12:15:48;99870.84;;;24.84;15.68
78121;BME280;67585;44.802;10.332;2023-04-01T12:20:57;99872.84;;;25.51;14.93
78121;BME280;67585;44.802;10.332;2023-04-01T12:24:09;99860.44;;;24.70;15.24
78121;BME280;67585;44.802;10.332;2023-04-01T12:32:00;99872.41;;;25.15;13.90
78121;BME280;67585;44.802;10.332;2023-04-01T12:37:15;99850.44;;;25.19;13.11
78121;BME280;67585;44.802;10.332;2023-04-01T12:50:19;99862.97;;;24.29;14.69
78121;BME280;67585;44.802;10.332;2023-04-01T12:52:58;99865.78;;;24.33;14.73
78121;BME280;67585;44.802;10.332;2023-04-01T12:55:43;99856.53;;;24.18;14.85
78121;BME280;67585;44.802;10.332;2023-04-01T13:07:19;99833.66;;;23.68;17.14
78121;BME280;67585;44.802;10.332;2023-04-01T13:30:22;99816.13;;;22.72;17.80
78121;BME280;67585;44.802;10.332;2023-04-01T13:35:52;99811.34;;;22.88;18.10
78121;BME280;67585;44.802;10.332;2023-04-01T13:44:17;99813.75;;;22.70;17.68
78121;BME280;67585;44.802;10.332;2023-04-01T13:47:04;99807.38;;;22.86;18.06
78121;BME280;67585;44.802;10.332;2023-04-01T13:52:17;99814.31;;;22.60;17.94
78121;BME280;67585;44.802;10.332;2023-04-01T14:06:34;99804.22;;;22.13;17.63
78121;BME280;67585;44.802;10.332;2023-04-01T14:12:09;99797.53;;;22.46;18.11
78121;BME280;67585;44.802;10.332;2023-04-01T14:40:04;99780.38;;;22.33;17.48
78121;BME280;67585;44.802;10.332;2023-04-01T14:42:48;99776.47;;;21.98;17.80
78121;BME280;67585;44.802;10.332;2023-04-01T14:51:22;99762.50;;;21.88;18.65
78121;BME280;67585;44.802;10.332;2023-04-01T14:59:01;99785.88;;;21.82;18.67
78121;BME280;67585;44.802;10.332;2023-04-01T15:01:54;99780.03;;;21.83;18.24
78121;BME280;67585;44.802;10.332;2023-04-01T15:21:40;99761.56;;;21.64;19.31
78121;BME280;67585;44.802;10.332;2023-04-01T15:24:39;99756.63;;;21.54;19.58
78121;BME280;67585;44.802;10.332;2023-04-01T15:27:15;99751.81;;;21.67;18.64
78121;BME280;67585;44.802;10.332;2023-04-01T15:44:26;99755.72;;;21.34;19.54
78121;BME280;67585;44.802;10.332;2023-04-01T15:47:01;99744.84;;;21.22;19.34
78121;BME280;67585;44.802;10.332;2023-04-01T15:49:38;99750.38;;;21.25;19.39
78121;BME280;67585;44.802;10.332;2023-04-01T15:53:03;99753.25;;;21.45;18.81
78121;BME280;67585;44.802;10.332;2023-04-01T16:00:53;99765.56;;;21.07;18.52
78121;BME280;67585;44.802;10.332;2023-04-01T16:03:36;99740.03;;;21.03;18.96
78121;BME280;67585;44.802;10.332;2023-04-01T16:06:33;99762.22;;;21.13;19.31
78121;BME280;67585;44.802;10.332;2023-04-01T16:09:22;99756.53;;;21.06;19.13
78121;BME280;67585;44.802;10.332;2023-04-01T16:22:57;99748.19;;;20.87;20.49
78121;BME280;67585;44.802;10.332;2023-04-01T16:25:39;99762.38;;;21.05;19.90
78121;BME280;67585;44.802;10.332;2023-04-01T16:38:54;99762.38;;;20.77;21.22
78121;BME280;67585;44.802;10.332;2023-04-01T16:41:28;99757.88;;;20.68;20.90
78121;BME280;67585;44.802;10.332;2023-04-01T16:44:08;99755.19;;;20.56;21.38
78121;BME280;67585;44.802;10.332;2023-04-01T16:52:53;99766.00;;;20.40;23.43
78121;BME280;67585;44.802;10.332;2023-04-01T16:55:34;99761.66;;;20.64;23.66
78121;BME280;67585;44.802;10.332;2023-04-01T16:58:01;99771.31;;;20.21;23.97
78121;BME280;67585;44.802;10.332;2023-04-01T17:00:27;99763.81;;;20.05;24.49
78121;BME280;67585;44.802;10.332;2023-04-01T17:03:04;99766.78;;;20.00;24.36
78121;BME280;67585;44.802;10.332;2023-04-01T17:11:20;99763.69;;;20.02;25.16
78121;BME280;67585;44.802;10.332;2023-04-01T17:14:10;99751.50;;;19.99;25.10
78121;BME280;67585;44.802;10.332;2023-04-01T17:19:49;99762.59;;;19.78;26.17
78121;BME280;67585;44.802;10.332;2023-04-01T17:22:52;99776.13;;;19.75;26.69
78121;BME280;67585;44.802;10.332;2023-04-01T17:30:35;99775.03;;;19.42;29.32
78121;BME280;67585;44.802;10.332;2023-04-01T17:41:12;99771.81;;;19.28;30.03
78121;BME280;67585;44.802;10.332;2023-04-01T18:26:33;99783.38;;;18.38;30.52
78121;BME280;67585;44.802;10.332;2023-04-01T18:31:35;99794.34;;;18.50;29.55
78121;BME280;67585;44.802;10.332;2023-04-01T18:34:26;99795.97;;;18.21;29.62
78121;BME280;67585;44.802;10.332;2023-04-01T18:37:17;99798.50;;;18.26;29.38
78121;BME280;67585;44.802;10.332;2023-04-01T18:39:52;99805.91;;;18.26;29.78
78121;BME280;67585;44.802;10.332;2023-04-01T18:42:30;99798.84;;;18.25;29.24
78121;BME280;67585;44.802;10.332;2023-04-01T18:45:14;99800.69;;;18.12;29.47
78121;BME280;67585;44.802;10.332;2023-04-01T18:50:59;99796.09;;;18.25;29.14
78121;BME280;67585;44.802;10.332;2023-04-01T18:53:45;99799.38;;;18.18;29.82
78121;BME280;67585;44.802;10.332;2023-04-01T18:59:06;99807.00;;;18.25;29.56
78121;BME280;67585;44.802;10.332;2023-04-01T19:02:08;99810.91;;;18.15;29.35
78121;BME280;67585;44.802;10.332;2023-04-01T19:04:42;99792.59;;;17.94;29.67
78121;BME280;67585;44.802;10.332;2023-04-01T19:10:14;99804.69;;;17.85;30.01
78121;BME280;67585;44.802;10.332;2023-04-01T19:17:58;99814.34;;;18.03;30.33
78121;BME280;67585;44.802;10.332;2023-04-01T19:20:33;99804.88;;;18.09;30.28
78121;BME280;67585;44.802;10.332;2023-04-01T19:25:48;99819.00;;;18.03;31.21
78121;BME280;67585;44.802;10.332;2023-04-01T19:31:00;99820.66;;;17.48;31.66
78121;BME280;67585;44.802;10.332;2023-04-01T19:36:13;99814.56;;;17.42;32.05
78121;BME280;67585;44.802;10.332;2023-04-01T19:39:17;99823.81;;;17.50;31.86
78121;BME280;67585;44.802;10.332;2023-04-01T19:47:39;99816.03;;;17.87;31.52
78121;BME280;67585;44.802;10.332;2023-04-01T19:52:47;99804.44;;;17.60;31.99
78121;BME280;67585;44.802;10.332;2023-04-01T20:01:10;99816.38;;;17.03;32.79
78121;BME280;67585;44.802;10.332;2023-04-01T20:06:55;99816.84;;;17.23;32.19
78121;BME280;67585;44.802;10.332;2023-04-01T20:14:40;99825.19;;;17.26;32.33
78121;BME280;67585;44.802;10.332;2023-04-01T20:19:59;99823.25;;;17.18;31.69
78121;BME280;67585;44.802;10.332;2023-04-01T20:27:58;99820.53;;;17.18;31.95
78121;BME280;67585;44.802;10.332;2023-04-01T20:38:41;99826.00;;;17.09;33.08
78121;BME280;67585;44.802;10.332;2023-04-01T20:44:04;99815.94;;;16.93;33.47
78121;BME280;67585;44.802;10.332;2023-04-01T20:46:43;99837.69;;;17.10;33.32
78121;BME280;67585;44.802;10.332;2023-04-01T20:57:06;99817.38;;;16.81;34.16
78121;BME280;67585;44.802;10.332;2023-04-01T21:05:26;99841.69;;;17.04;33.94
78121;BME280;67585;44.802;10.332;2023-04-01T21:08:00;99836.56;;;16.94;34.68
78121;BME280;67585;44.802;10.332;2023-04-01T21:29:19;99843.75;;;16.98;33.35
78121;BME280;67585;44.802;10.332;2023-04-01T21:34:35;99844.91;;;16.80;33.16
78121;BME280;67585;44.802;10.332;2023-04-01T21:37:36;99850.50;;;16.83;33.19
78121;BME280;67585;44.802;10.332;2023-04-01T22:10:51;99822.69;;;16.12;34.36
78121;BME280;67585;44.802;10.332;2023-04-01T22:13:32;99862.47;;;16.16;34.80
78121;BME280;67585;44.802;10.332;2023-04-01T22:18:46;99869.31;;;16.54;34.08
78121;BME280;67585;44.802;10.332;2023-04-01T22:21:30;99856.25;;;16.16;35.14
78121;BME280;67585;44.802;10.332;2023-04-01T22:26:37;99855.34;;;16.29;34.59
78121;BME280;67585;44.802;10.332;2023-04-01T22:29:44;99855.31;;;16.20;34.86
78121;BME280;67585;44.802;10.332;2023-04-01T22:32:20;99847.03;;;16.34;33.79
78121;BME280;67585;44.802;10.332;2023-04-01T22:34:56;99855.59;;;16.10;33.98
78121;BME280;67585;44.802;10.332;2023-04-01T22:38:04;99859.97;;;16.29;34.20
78121;BME280;67585;44.802;10.332;2023-04-01T22:40:36;99858.22;;;16.33;33.70
78121;BME280;67585;44.802;10.332;2023-04-01T22:43:09;99859.16;;;16.28;34.19
78121;BME280;67585;44.802;10.332;2023-04-01T22:51:11;99857.72;;;16.31;33.73
78121;BME280;67585;44.802;10.332;2023-04-01T22:53:52;99864.63;;;16.37;33.21
78121;BME280;67585;44.802;10.332;2023-04-01T22:56:28;99846.53;;;16.23;33.70
78121;BME280;67585;44.802;10.332;2023-04-01T22:59:02;99867.13;;;16.16;33.74
78121;BME280;67585;44.802;10.332;2023-04-01T23:01:33;99851.50;;;16.21;33.78
78121;BME280;67585;44.802;10.332;2023-04-01T23:04:03;99847.41;;;15.93;34.14
78121;BME280;67585;44.802;10.332;2023-04-01T23:06:35;99864.69;;;16.06;34.54
78121;BME280;67585;44.802;10.332;2023-04-01T23:09:38;99853.66;;;16.02;33.93
78121;BME280;67585;44.802;10.332;2023-04-01T23:12:09;99868.59;;;16.31;33.89
78121;BME280;67585;44.802;10.332;2023-04-01T23:14:50;99871.56;;;16.03;33.91
78121;BME280;67585;44.802;10.332;2023-04-01T23:26:10;99908.28;;;16.32;34.68
78121;BME280;67585;44.802;10.332;2023-04-01T23:34:17;99917.38;;;16.27;35.34
78121;BME280;67585;44.802;10.332;2023-04-01T23:36:47;99924.13;;;16.38;34.43
78121;BME280;67585;44.802;10.332;2023-04-01T23:41:48;99933.84;;;16.31;35.53
78121;BME280;67585;44.802;10.332;2023-04-01T23:44:15;99921.66;;;15.88;36.63
78121;BME280;67585;44.802;10.332;2023-04-01T23:46:44;99928.34;;;15.59;37.40
78121;BME280;67585;44.802;10.332;2023-04-01T23:49:18;99932.47;;;16.11;36.66
78121;BME280;67585;44.802;10.332;2023-04-01T23:51:56;99936.63;;;16.08;36.18
78121;BME280;67585;44.802;10.332;2023-04-01T23:54:30;99928.97;;;15.79;37.09
78121;BME280;67585;44.802;10.332;2023-04-01T23:56:57;99901.81;;;15.79;36.90
